Time;durP1;ratioP1;P1;durP2;ratioP2;P2;SDS_P1;SDS_P2;PMS_P1;PMS_P2;Temp;Humidity;BMP_temperature;BMP_pressure;BME280_temperature;BME280_humidity;BME280_pressure;Samples;Min_cycle;Max_cycle;Signal;HPM_P1;HPM_P2
2021/11/16 00:02:03;;;;;;;41.83;26.08;;;8.00;99.90;;;;;;4916102;29;20103;-78
2021/11/16 00:04:29;;;;;;;37.58;24.23;;;8.10;99.90;;;;;;4899344;29;20390;-77
2021/11/16 00:06:54;;;;;;;37.38;24.13;;;8.10;99.90;;;;;;4915651;29;20020;-77
2021/11/16 00:09:20;;;;;;;35.85;24.05;;;8.10;99.90;;;;;;4898997;29;20389;-77
2021/11/16 00:11:47;;;;;;;33.17;23.25;;;8.10;99.90;;;;;;4916151;29;20119;-77
2021/11/16 00:14:15;;;;;;;34.85;23.30;;;8.10;99.90;;;;;;4897938;29;20040;-77
2021/11/16 00:16:41;;;;;;;40.08;25.55;;;8.10;99.90;;;;;;4899103;29;20023;-77
2021/11/16 00:19:11;;;;;;;41.83;26.83;;;8.10;99.90;;;;;;4898776;29;20149;-78
2021/11/16 00:21:39;;;;;;;39.85;26.17;;;8.10;99.90;;;;;;4898409;29;20024;-77
2021/11/16 00:24:11;;;;;;;35.63;23.15;;;8.00;99.90;;;;;;4915581;29;20032;-78
2021/11/16 00:26:36;;;;;;;41.45;27.60;;;8.10;99.90;;;;;;4899326;29;20075;-77
2021/11/16 00:29:02;;;;;;;44.60;28.23;;;8.00;99.90;;;;;;4914747;29;20384;-77
2021/11/16 00:31:31;;;;;;;41.15;27.50;;;8.00;99.90;;;;;;4899165;29;20035;-78
2021/11/16 00:33:57;;;;;;;37.90;26.00;;;8.00;99.90;;;;;;4898573;29;20381;-78
2021/11/16 00:36:23;;;;;;;37.85;24.75;;;8.00;99.90;;;;;;4898188;29;20021;-78
2021/11/16 00:38:49;;;;;;;36.92;25.13;;;8.00;99.90;;;;;;4915667;29;20040;-78
2021/11/16 00:41:14;;;;;;;35.30;23.45;;;8.00;99.90;;;;;;4915505;29;20024;-78
2021/11/16 00:43:40;;;;;;;33.05;23.65;;;8.00;99.90;;;;;;4898088;29;20032;-78
2021/11/16 00:46:06;;;;;;;36.20;23.50;;;8.10;99.90;;;;;;4898129;29;20064;-78
2021/11/16 00:48:31;;;;;;;33.60;22.17;;;8.00;99.90;;;;;;4898352;29;20540;-77
2021/11/16 00:51:00;;;;;;;39.88;23.60;;;8.10;99.90;;;;;;4898064;29;20056;-77
2021/11/16 00:53:31;;;;;;;37.80;23.60;;;8.10;99.90;;;;;;4879816;29;20474;-78
2021/11/16 00:55:58;;;;;;;26.63;17.67;;;8.10;99.90;;;;;;4879375;29;20148;-78
2021/11/16 00:58:24;;;;;;;38.55;23.13;;;8.10;99.90;;;;;;4896897;29;20099;-77
2021/11/16 01:00:50;;;;;;;35.00;22.98;;;8.10;99.90;;;;;;4896577;29;20104;-78
2021/11/16 01:03:17;;;;;;;36.22;22.90;;;8.10;99.90;;;;;;4895252;29;20565;-77
2021/11/16 01:05:44;;;;;;;34.45;22.00;;;8.10;99.90;;;;;;4879565;29;20032;-78
2021/11/16 01:08:10;;;;;;;38.05;24.73;;;8.10;99.90;;;;;;4878906;29;20386;-78
2021/11/16 01:10:40;;;;;;;39.40;24.80;;;8.10;99.90;;;;;;4879106;29;20032;-78
2021/11/16 01:13:06;;;;;;;39.60;24.50;;;8.10;99.90;;;;;;4879533;29;20054;-78
2021/11/16 01:15:34;;;;;;;40.95;24.55;;;8.10;99.90;;;;;;4879673;29;20462;-78
2021/11/16 01:18:00;;;;;;;39.75;25.27;;;8.10;99.90;;;;;;4878434;29;20537;-77
2021/11/16 01:20:26;;;;;;;39.35;27.10;;;8.10;99.90;;;;;;4896618;29;20033;-77
2021/11/16 01:22:54;;;;;;;43.05;26.23;;;8.10;99.90;;;;;;4879510;29;20480;-77
2021/11/16 01:25:21;;;;;;;38.75;25.35;;;8.10;99.90;;;;;;4879760;29;20040;-77
2021/11/16 01:27:48;;;;;;;39.42;26.85;;;8.10;99.90;;;;;;4883267;29;20024;-77
2021/11/16 01:30:18;;;;;;;38.65;25.27;;;8.00;99.90;;;;;;4900062;29;20033;-77
2021/11/16 01:32:48;;;;;;;36.88;24.15;;;8.10;99.90;;;;;;4899502;29;20438;-77
2021/11/16 01:35:14;;;;;;;40.90;26.35;;;8.10;99.90;;;;;;4899940;29;20028;-77
2021/11/16 01:37:40;;;;;;;37.20;24.15;;;8.10;99.90;;;;;;4898833;29;20024;-77
2021/11/16 01:40:09;;;;;;;37.75;25.77;;;8.00;99.90;;;;;;4882394;29;20040;-77
2021/11/16 01:42:35;;;;;;;35.47;23.52;;;8.10;99.90;;;;;;4900182;29;20027;-77
2021/11/16 01:45:02;;;;;;;34.35;23.55;;;8.10;99.90;;;;;;4882028;29;20184;-77
2021/11/16 01:47:28;;;;;;;38.72;24.65;;;8.10;99.90;;;;;;4882891;29;20024;-78
2021/11/16 01:49:53;;;;;;;38.05;25.05;;;8.10;99.90;;;;;;4881558;29;20068;-77
2021/11/16 01:52:19;;;;;;;37.72;26.05;;;8.10;99.90;;;;;;4882013;29;20036;-77
2021/11/16 01:54:45;;;;;;;34.53;23.73;;;8.10;99.90;;;;;;4883173;29;20033;-77
2021/11/16 01:57:11;;;;;;;37.13;24.45;;;8.10;99.90;;;;;;4887183;29;20073;-77
2021/11/16 01:59:36;;;;;;;36.35;23.08;;;8.10;99.90;;;;;;4880480;29;20041;-77
2021/11/16 02:02:03;;;;;;;39.22;25.38;;;8.10;99.90;;;;;;4881307;29;20104;-77
2021/11/16 02:04:29;;;;;;;34.67;23.25;;;8.10;99.90;;;;;;4894954;29;20032;-77
2021/11/16 02:06:54;;;;;;;36.40;24.42;;;8.10;99.90;;;;;;4897927;29;20135;-77
2021/11/16 02:09:20;;;;;;;34.05;23.40;;;8.10;99.90;;;;;;4899141;29;20036;-77
2021/11/16 02:11:46;;;;;;;38.65;24.55;;;8.10;99.90;;;;;;4899537;29;20035;-77
2021/11/16 02:14:15;;;;;;;40.97;27.23;;;8.10;99.90;;;;;;4898274;29;20092;-77
2021/11/16 02:16:43;;;;;;;39.22;25.17;;;8.10;99.90;;;;;;4881812;29;20504;-77
2021/11/16 02:19:11;;;;;;;40.72;26.20;;;8.10;99.90;;;;;;4880898;29;20028;-77
2021/11/16 02:21:37;;;;;;;35.83;24.80;;;8.10;99.90;;;;;;4880985;29;20046;-77
2021/11/16 02:24:07;;;;;;;41.08;27.52;;;8.10;99.90;;;;;;4882088;29;20401;-77
2021/11/16 02:26:34;;;;;;;41.97;27.73;;;8.00;99.90;;;;;;4899318;29;20024;-77
2021/11/16 02:29:00;;;;;;;43.30;27.75;;;8.00;99.90;;;;;;4898023;29;20024;-77
2021/11/16 02:31:26;;;;;;;42.53;26.52;;;8.00;99.90;;;;;;4882554;29;20079;-77
2021/11/16 02:33:52;;;;;;;41.10;27.10;;;7.90;99.90;;;;;;4882154;29;20033;-77
2021/11/16 02:36:21;;;;;;;39.90;25.50;;;8.00;99.90;;;;;;4880968;29;20033;-77
2021/11/16 02:38:49;;;;;;;42.35;26.73;;;8.00;99.90;;;;;;4882171;29;20119;-77
2021/11/16 02:41:16;;;;;;;42.33;26.63;;;8.00;99.90;;;;;;4881310;29;20600;-77
2021/11/16 02:43:42;;;;;;;40.03;26.73;;;8.00;99.90;;;;;;4899042;29;20482;-77
2021/11/16 02:46:08;;;;;;;44.10;28.27;;;8.00;99.90;;;;;;4898548;29;20029;-77
2021/11/16 02:48:35;;;;;;;42.55;26.98;;;8.00;99.90;;;;;;4898174;29;20029;-76
2021/11/16 02:51:05;;;;;;;40.03;25.90;;;7.90;99.90;;;;;;4914926;29;20051;-76
2021/11/16 02:53:30;;;;;;;40.10;26.00;;;8.00;99.90;;;;;;4917709;29;20040;-76
2021/11/16 02:55:56;;;;;;;39.85;24.92;;;8.00;99.90;;;;;;4916631;29;20035;-76
2021/11/16 02:58:24;;;;;;;38.17;24.70;;;8.00;99.90;;;;;;4917557;29;20142;-76
2021/11/16 03:00:54;;;;;;;40.10;24.02;;;8.00;99.90;;;;;;4900635;29;20461;-76
2021/11/16 03:03:21;;;;;;;34.45;23.77;;;8.00;99.90;;;;;;4916688;29;20100;-76
2021/11/16 03:05:48;;;;;;;37.17;23.83;;;8.00;99.90;;;;;;4917294;29;20027;-76
2021/11/16 03:08:20;;;;;;;37.28;24.77;;;8.00;99.90;;;;;;4900199;29;20036;-77
2021/11/16 03:10:46;;;;;;;38.97;24.75;;;8.00;99.90;;;;;;4916636;29;20389;-77
2021/11/16 03:13:12;;;;;;;37.28;24.25;;;8.00;99.90;;;;;;4915729;29;20031;-77
2021/11/16 03:15:39;;;;;;;35.58;22.92;;;8.00;99.90;;;;;;4900434;29;20036;-77
2021/11/16 03:18:05;;;;;;;34.72;23.60;;;8.00;99.90;;;;;;4899066;29;20027;-77
2021/11/16 03:20:30;;;;;;;32.80;21.67;;;8.00;99.90;;;;;;4917315;29;20166;-77
2021/11/16 03:23:07;;;;;;;37.40;25.55;;;8.00;99.90;;;;;;4915560;29;20027;-77
2021/11/16 03:25:35;;;;;;;30.98;21.42;;;8.00;99.90;;;;;;4916671;29;20113;-76
2021/11/16 03:28:05;;;;;;;37.15;24.73;;;8.00;99.90;;;;;;4899478;29;20027;-76
2021/11/16 03:30:31;;;;;;;34.85;23.70;;;8.00;99.90;;;;;;4916543;29;20027;-77
2021/11/16 03:32:57;;;;;;;37.92;24.50;;;8.00;99.90;;;;;;4916502;29;20496;-76
2021/11/16 03:35:23;;;;;;;35.05;23.77;;;8.00;99.90;;;;;;4916065;29;20481;-77
2021/11/16 03:37:53;;;;;;;32.55;22.10;;;8.00;99.90;;;;;;4916076;29;20381;-75
2021/11/16 03:40:21;;;;;;;35.03;22.42;;;8.00;99.90;;;;;;4916626;29;20024;-76
2021/11/16 03:42:48;;;;;;;38.47;24.50;;;8.00;99.90;;;;;;4916760;29;20180;-76
2021/11/16 03:45:17;;;;;;;37.70;25.23;;;8.00;99.90;;;;;;4915844;29;20545;-76
2021/11/16 03:47:43;;;;;;;34.53;23.13;;;8.00;99.90;;;;;;4916344;29;20039;-75
2021/11/16 03:50:14;;;;;;;36.67;24.42;;;8.00;99.90;;;;;;4916096;29;20048;-75
2021/11/16 03:52:42;;;;;;;32.42;22.42;;;8.00;99.90;;;;;;4916076;29;20040;-76
2021/11/16 03:55:11;;;;;;;29.75;21.88;;;8.00;99.90;;;;;;4916030;29;20087;-77
2021/11/16 03:57:37;;;;;;;32.58;22.63;;;8.00;99.90;;;;;;4916633;29;20035;-77
2021/11/16 04:00:10;;;;;;;33.17;21.35;;;8.00;99.90;;;;;;4898439;29;20044;-76
2021/11/16 04:02:35;;;;;;;38.05;26.13;;;8.00;99.90;;;;;;4916565;29;20024;-77
2021/11/16 04:05:03;;;;;;;47.63;29.90;;;8.00;99.90;;;;;;4898858;29;20421;-77
2021/11/16 04:07:30;;;;;;;41.92;26.42;;;7.90;99.90;;;;;;4898727;29;20056;-77
2021/11/16 04:09:56;;;;;;;39.92;26.77;;;7.90;99.90;;;;;;4916228;29;20031;-76
2021/11/16 04:12:21;;;;;;;40.80;27.90;;;7.90;99.90;;;;;;4916340;29;20032;-77
2021/11/16 04:14:47;;;;;;;44.42;28.75;;;7.90;99.90;;;;;;4915022;29;20036;-77
2021/11/16 04:17:14;;;;;;;39.17;26.58;;;7.90;99.90;;;;;;4915965;29;20024;-77
2021/11/16 04:19:39;;;;;;;37.92;25.50;;;7.90;99.90;;;;;;4898406;29;20036;-76
2021/11/16 04:22:05;;;;;;;37.53;25.35;;;7.90;99.90;;;;;;4898800;29;20031;-77
2021/11/16 04:24:31;;;;;;;38.38;24.77;;;7.90;99.90;;;;;;4916099;29;20028;-77
2021/11/16 04:26:56;;;;;;;37.28;24.48;;;7.90;99.90;;;;;;4913789;29;20409;-76
2021/11/16 04:29:22;;;;;;;43.95;26.42;;;7.90;99.90;;;;;;4898891;29;20024;-77
2021/11/16 04:31:48;;;;;;;37.97;26.05;;;7.90;99.90;;;;;;4898761;29;20024;-77
2021/11/16 04:34:14;;;;;;;34.30;22.92;;;7.90;99.90;;;;;;4915065;29;20040;-77
2021/11/16 04:36:39;;;;;;;33.83;22.63;;;7.90;99.90;;;;;;4915764;29;20042;-77
2021/11/16 04:39:07;;;;;;;37.85;25.42;;;7.90;99.90;;;;;;4898520;29;20028;-77
2021/11/16 04:41:34;;;;;;;36.70;23.38;;;7.90;99.90;;;;;;4898305;29;20504;-77
2021/11/16 04:44:01;;;;;;;37.88;25.30;;;7.90;99.90;;;;;;4898332;29;20469;-76
2021/11/16 04:46:27;;;;;;;33.22;22.30;;;7.90;99.90;;;;;;4915778;29;20123;-77
2021/11/16 04:54:58;;;;;;;43.30;27.55;;;7.90;99.90;;;;;;4874515;29;20041;-77
2021/11/16 05:02:41;;;;;;;42.85;26.98;;;7.80;99.90;;;;;;4915016;29;20043;-77
2021/11/16 05:05:13;;;;;;;51.00;31.30;;;7.80;99.90;;;;;;4915100;29;20021;-77
2021/11/16 05:08:00;;;;;;;49.50;30.98;;;7.80;99.90;;;;;;4898229;29;20020;-77
2021/11/16 05:10:26;;;;;;;49.15;30.40;;;7.70;99.90;;;;;;4897774;29;20028;-78
2021/11/16 05:12:55;;;;;;;47.95;29.77;;;7.70;99.90;;;;;;4879558;29;20032;-78
2021/11/16 05:15:22;;;;;;;39.88;25.27;;;7.60;99.90;;;;;;4893871;29;20434;-77
2021/11/16 05:17:48;;;;;;;41.10;25.00;;;7.70;99.90;;;;;;4903676;29;20072;-77
2021/11/16 05:20:15;;;;;;;49.13;29.17;;;7.70;99.90;;;;;;4914895;29;20031;-76
2021/11/16 05:22:45;;;;;;;46.53;27.92;;;7.70;99.90;;;;;;4891746;29;20031;-78
2021/11/16 05:25:11;;;;;;;47.58;28.38;;;7.70;99.90;;;;;;4893797;29;20024;-78
2021/11/16 05:27:38;;;;;;;49.58;29.48;;;7.70;99.90;;;;;;4893406;29;20071;-78
2021/11/16 05:30:07;;;;;;;40.55;27.23;;;7.70;99.90;;;;;;4895007;29;20493;-78
2021/11/16 05:32:34;;;;;;;48.05;27.40;;;7.60;99.90;;;;;;4897729;29;20433;-77
2021/11/16 05:35:00;;;;;;;42.88;26.15;;;7.70;99.90;;;;;;4897378;29;20502;-78
2021/11/16 05:37:26;;;;;;;48.08;28.08;;;7.70;99.90;;;;;;4897716;29;20078;-78
2021/11/16 05:39:51;;;;;;;45.63;28.15;;;7.60;99.90;;;;;;4892924;29;20069;-78
2021/11/16 05:42:21;;;;;;;49.15;30.75;;;7.60;99.90;;;;;;4896402;29;20048;-78
2021/11/16 05:44:51;;;;;;;48.85;29.63;;;7.60;99.90;;;;;;4913431;29;20123;-77
2021/11/16 05:47:18;;;;;;;53.45;29.58;;;7.60;99.90;;;;;;4914512;29;20043;-78
2021/11/16 05:49:44;;;;;;;47.35;27.92;;;7.50;99.90;;;;;;4893788;29;20091;-78
2021/11/16 05:52:10;;;;;;;42.13;25.60;;;7.40;99.90;;;;;;4878395;29;20029;-78
2021/11/16 05:54:36;;;;;;;47.40;26.25;;;7.40;99.90;;;;;;4878360;29;20045;-77
2021/11/16 05:57:04;;;;;;;43.13;24.13;;;7.50;99.90;;;;;;4895267;29;20028;-77
2021/11/16 05:59:34;;;;;;;45.15;26.80;;;7.50;99.90;;;;;;4889313;29;20028;-77
2021/11/16 06:02:03;;;;;;;45.38;28.02;;;7.50;99.90;;;;;;4863863;29;20061;-77
2021/11/16 06:04:29;;;;;;;47.80;28.63;;;7.50;99.90;;;;;;4881193;29;20503;-77
2021/11/16 06:06:55;;;;;;;42.70;25.65;;;7.50;99.90;;;;;;4884918;29;20024;-77
2021/11/16 06:09:21;;;;;;;42.28;26.77;;;7.50;99.90;;;;;;4895984;29;20040;-76
2021/11/16 06:11:46;;;;;;;38.65;23.98;;;7.50;99.90;;;;;;4879617;29;20489;-76
2021/11/16 06:14:12;;;;;;;36.13;23.02;;;7.60;99.90;;;;;;4880524;29;20506;-77
2021/11/16 06:16:38;;;;;;;46.35;27.70;;;7.60;99.90;;;;;;4899369;29;20032;-76
2021/11/16 06:19:06;;;;;;;45.75;26.50;;;7.60;99.90;;;;;;4897781;29;20032;-77
2021/11/16 06:21:32;;;;;;;40.05;24.45;;;7.60;99.90;;;;;;4897561;29;20481;-77
2021/11/16 06:23:58;;;;;;;38.10;23.50;;;7.60;99.90;;;;;;4898496;29;20040;-76
2021/11/16 06:26:26;;;;;;;49.70;27.20;;;7.60;99.90;;;;;;4890967;29;20031;-75
2021/11/16 06:28:51;;;;;;;48.30;27.90;;;7.70;99.90;;;;;;4870234;29;20405;-73
2021/11/16 06:31:21;;;;;;;44.10;25.52;;;7.60;99.90;;;;;;4880507;29;20111;-83
2021/11/16 06:33:47;;;;;;;44.88;26.52;;;7.60;99.90;;;;;;4893868;29;20517;-79
2021/11/16 06:36:13;;;;;;;46.20;26.92;;;7.60;99.90;;;;;;4896712;29;20431;-77
2021/11/16 06:38:39;;;;;;;45.33;25.63;;;7.60;99.90;;;;;;4898284;29;20086;-77
2021/11/16 06:41:04;;;;;;;45.45;26.52;;;7.60;99.90;;;;;;4896535;29;20029;-73
2021/11/16 06:43:32;;;;;;;41.03;24.17;;;7.70;99.90;;;;;;4897252;29;20020;-76
2021/11/16 06:46:01;;;;;;;47.80;26.90;;;7.70;99.90;;;;;;4898335;29;20038;-74
2021/11/16 06:48:27;;;;;;;44.42;24.67;;;7.70;99.90;;;;;;4897511;29;20056;-75
2021/11/16 06:50:54;;;;;;;41.85;24.85;;;7.70;99.90;;;;;;4898617;29;20128;-83
2021/11/16 06:53:28;;;;;;;39.92;24.77;;;7.70;99.90;;;;;;4880174;29;20092;-81
2021/11/16 06:55:55;;;;;;;38.05;21.02;;;7.70;99.90;;;;;;4897943;29;20111;-82
2021/11/16 06:58:22;;;;;;;41.67;24.63;;;7.70;99.90;;;;;;4897748;29;20076;-80
2021/11/16 07:00:49;;;;;;;43.03;24.52;;;7.70;99.90;;;;;;4897256;29;20036;-80
2021/11/16 07:03:19;;;;;;;44.40;26.27;;;7.60;99.90;;;;;;4895660;29;20535;-80
2021/11/16 07:05:52;;;;;;;46.60;26.88;;;7.60;99.90;;;;;;4898031;29;20116;-77
2021/11/16 07:08:27;;;;;;;47.60;26.50;;;7.60;99.90;;;;;;4896096;29;20033;-81
2021/11/16 07:11:01;;;;;;;37.00;22.63;;;7.50;99.90;;;;;;4897216;29;20033;-82
2021/11/16 07:13:27;;;;;;;39.65;22.02;;;7.40;99.90;;;;;;4896114;29;20044;-83
2021/11/16 07:15:53;;;;;;;42.28;24.23;;;7.40;99.90;;;;;;4880529;29;20027;-73
2021/11/16 07:18:18;;;;;;;36.50;21.77;;;7.40;99.90;;;;;;4896738;29;20048;-77
2021/11/16 07:20:46;;;;;;;34.45;20.85;;;7.50;99.90;;;;;;4896075;29;20505;-76
2021/11/16 07:23:12;;;;;;;32.92;20.67;;;7.50;99.90;;;;;;4894528;29;20035;-77
2021/11/16 07:25:38;;;;;;;37.65;21.67;;;7.50;99.90;;;;;;4883569;29;20378;-80
2021/11/16 07:28:04;;;;;;;39.17;23.13;;;7.50;99.90;;;;;;4897800;29;20032;-82
2021/11/16 07:30:35;;;;;;;42.25;25.13;;;7.50;99.90;;;;;;4897024;29;20028;-83
2021/11/16 07:33:14;;;;;;;43.40;24.75;;;7.50;99.90;;;;;;4897806;29;20486;-81
2021/11/16 07:35:43;;;;;;;42.13;23.83;;;7.50;99.90;;;;;;4880095;29;20064;-83
2021/11/16 07:38:13;;;;;;;44.40;25.45;;;7.50;99.90;;;;;;4879658;29;20068;-76
2021/11/16 07:40:45;;;;;;;41.65;22.45;;;7.50;99.90;;;;;;4880184;29;20037;-79
2021/11/16 07:43:19;;;;;;;38.10;23.88;;;7.50;99.90;;;;;;4887847;29;20020;-78
2021/11/16 07:45:48;;;;;;;40.03;21.77;;;7.60;99.90;;;;;;4895601;29;20044;-74
2021/11/16 15:31:20;;;;;;;27.10;17.17;;;7.60;99.90;;;;;;5563550;23;20060;-78
2021/11/16 15:33:50;;;;;;;24.10;16.45;;;7.60;99.90;;;;;;4898309;29;20032;-77
2021/11/16 15:36:24;;;;;;;30.10;18.65;;;7.60;99.90;;;;;;4916175;29;20495;-81
2021/11/16 15:39:05;;;;;;;26.85;17.83;;;7.60;99.90;;;;;;4915946;29;20028;-82
2021/11/16 15:41:44;;;;;;;32.22;19.80;;;7.60;99.90;;;;;;4900657;29;20024;-81
2021/11/16 15:44:42;;;;;;;36.42;22.95;;;7.70;99.90;;;;;;4916104;29;20469;-84
2021/11/16 15:58:27;;;;;;;37.75;21.90;;;7.40;99.90;;;;;;4907091;29;20066;-81
2021/11/16 16:01:15;;;;;;;35.15;21.00;;;7.40;99.90;;;;;;4899572;29;20024;-79
2021/11/16 16:03:57;;;;;;;34.45;20.08;;;7.40;99.90;;;;;;4894848;29;20024;-79
2021/11/16 16:06:31;;;;;;;32.55;20.15;;;7.40;99.90;;;;;;4896855;29;20036;-79
2021/11/16 16:09:31;;;;;;;31.20;18.48;;;7.40;99.90;;;;;;4894561;29;20024;-79
2021/11/16 16:11:59;;;;;;;29.00;16.88;;;7.40;99.90;;;;;;4894881;29;20032;-79
2021/11/16 16:14:40;;;;;;;28.13;17.27;;;7.50;99.90;;;;;;4886164;29;20393;-79
2021/11/16 16:17:12;;;;;;;28.98;17.55;;;7.50;99.90;;;;;;4895826;29;20492;-80
2021/11/16 16:19:42;;;;;;;;;;;7.50;99.90;;;;;;4910310;29;20472;-79
2021/11/16 16:22:24;;;;;;;33.78;19.52;;;7.50;99.90;;;;;;4895287;29;19945;-80
2021/11/16 16:24:50;;;;;;;29.25;17.10;;;7.50;99.90;;;;;;4896007;29;20529;-79
2021/11/16 16:27:16;;;;;;;29.75;19.05;;;7.50;99.90;;;;;;4894402;29;20355;-79
2021/11/16 16:29:42;;;;;;;27.48;18.45;;;7.50;99.90;;;;;;4912997;29;20032;-79
2021/11/16 16:32:08;;;;;;;33.67;19.70;;;7.50;99.90;;;;;;4895362;29;20460;-78
2021/11/16 16:34:36;;;;;;;32.47;19.25;;;7.40;99.90;;;;;;4896536;29;20032;-80
2021/11/16 16:37:03;;;;;;;34.45;21.13;;;7.40;99.90;;;;;;4894432;29;20091;-79
2021/11/16 16:39:29;;;;;;;33.17;20.20;;;7.40;99.90;;;;;;4895858;29;20723;-79
2021/11/16 16:41:55;;;;;;;33.97;19.67;;;7.30;99.90;;;;;;4892688;29;20096;-79
2021/11/16 16:44:22;;;;;;;34.15;19.80;;;7.40;99.90;;;;;;4892491;29;20035;-80
2021/11/16 16:46:58;;;;;;;30.77;18.95;;;7.30;99.90;;;;;;4893384;29;20122;-79
2021/11/16 16:49:25;;;;;;;30.88;19.83;;;7.40;99.90;;;;;;4895611;29;20056;-79
2021/11/16 16:51:51;;;;;;;28.23;17.50;;;7.40;99.90;;;;;;4895899;29;20032;-79
2021/11/16 16:54:19;;;;;;;28.67;19.10;;;7.40;99.90;;;;;;4895716;29;20047;-79
2021/11/16 16:56:47;;;;;;;29.77;19.38;;;7.40;99.90;;;;;;4892628;29;20036;-78
2021/11/16 16:59:15;;;;;;;35.40;21.88;;;7.40;99.90;;;;;;4893795;29;20036;-78
2021/11/16 17:01:46;;;;;;;29.20;18.83;;;7.40;99.90;;;;;;4894834;29;20063;-78
2021/11/16 17:04:15;;;;;;;31.08;19.27;;;7.40;99.90;;;;;;4893399;29;20028;-81
2021/11/16 17:06:42;;;;;;;32.15;19.45;;;7.40;99.90;;;;;;4896066;29;20032;-81
2021/11/16 17:09:07;;;;;;;34.42;21.70;;;7.40;99.90;;;;;;4894416;29;20043;-79
2021/11/16 17:11:33;;;;;;;29.48;19.42;;;7.30;99.90;;;;;;4893965;29;20028;-79
2021/11/16 17:14:01;;;;;;;29.60;18.60;;;7.30;99.90;;;;;;4894222;29;20040;-79
2021/11/16 17:16:31;;;;;;;36.55;23.75;;;7.40;99.90;;;;;;4894345;29;20491;-78
2021/11/16 17:19:00;;;;;;;34.65;23.33;;;7.40;99.90;;;;;;4879521;29;20067;-78
2021/11/16 17:21:27;;;;;;;31.48;21.05;;;7.40;99.90;;;;;;4895630;29;20051;-79
2021/11/16 17:23:54;;;;;;;29.77;19.02;;;7.40;99.90;;;;;;4892663;29;20032;-79
2021/11/16 17:26:20;;;;;;;30.92;20.30;;;7.30;99.90;;;;;;4875469;29;20044;-78
2021/11/16 17:28:46;;;;;;;32.50;19.73;;;7.30;99.90;;;;;;4893518;29;20032;-78
2021/11/16 17:31:12;;;;;;;36.47;23.42;;;7.30;99.90;;;;;;4886217;29;20039;-77
2021/11/16 17:33:39;;;;;;;33.10;20.85;;;7.30;99.90;;;;;;4894533;29;20038;-76
2021/11/16 17:36:07;;;;;;;32.80;21.17;;;7.20;99.90;;;;;;4911167;29;20047;-78
2021/11/16 17:38:33;;;;;;;36.63;23.70;;;7.20;99.90;;;;;;4889458;29;20862;-78
2021/11/16 17:40:59;;;;;;;35.45;21.48;;;7.20;99.90;;;;;;4910404;29;20048;-80
2021/11/16 17:43:25;;;;;;;36.03;21.27;;;7.20;99.90;;;;;;4895167;29;20033;-82
2021/11/16 17:45:51;;;;;;;28.25;18.85;;;7.30;99.90;;;;;;4894484;29;20088;-78
2021/11/16 17:48:17;;;;;;;34.53;20.52;;;7.30;99.90;;;;;;4894040;29;20032;-81
2021/11/16 17:50:42;;;;;;;33.50;20.17;;;7.30;99.90;;;;;;4893589;29;20103;-81
2021/11/16 17:53:10;;;;;;;29.80;19.48;;;7.30;99.90;;;;;;4891713;29;20036;-81
2021/11/16 17:55:37;;;;;;;32.85;21.65;;;7.30;99.90;;;;;;4894949;29;20048;-80
2021/11/16 17:58:05;;;;;;;31.23;20.52;;;7.30;99.90;;;;;;4911745;29;20039;-80
2021/11/16 18:00:32;;;;;;;33.03;20.50;;;7.30;99.90;;;;;;4893566;29;20032;-80
2021/11/16 18:03:00;;;;;;;31.60;19.67;;;7.30;99.90;;;;;;4892579;29;20028;-80
2021/11/16 18:08:09;;;;;;;29.63;18.80;;;7.40;99.90;;;;;;4912982;29;20032;-80
2021/11/16 18:10:39;;;;;;;31.40;20.17;;;7.40;99.90;;;;;;4884991;29;20188;-79
2021/11/16 18:13:06;;;;;;;32.10;19.38;;;7.40;99.90;;;;;;4897408;29;20024;-80
2021/11/16 18:15:33;;;;;;;26.60;17.38;;;7.40;99.90;;;;;;4892542;29;20039;-78
2021/11/16 18:18:00;;;;;;;31.63;19.63;;;7.40;99.90;;;;;;4915040;29;20039;-78
2021/11/16 18:20:26;;;;;;;27.98;17.30;;;7.40;99.90;;;;;;4897948;29;20032;-78
2021/11/16 18:22:54;;;;;;;30.80;19.05;;;7.40;99.90;;;;;;4898102;29;20028;-80
2021/11/16 18:25:21;;;;;;;34.20;19.40;;;7.40;99.90;;;;;;4913259;29;20065;-81
2021/11/16 18:27:49;;;;;;;26.65;17.85;;;7.40;99.90;;;;;;4897322;29;20060;-80
2021/11/16 18:30:21;;;;;;;30.80;20.63;;;7.40;99.90;;;;;;4896656;29;20062;-80
2021/11/16 18:32:50;;;;;;;31.08;19.48;;;7.40;99.90;;;;;;4895780;29;20631;-80
2021/11/16 18:35:17;;;;;;;32.45;20.13;;;7.40;99.90;;;;;;4896148;29;20046;-81
2021/11/16 18:37:44;;;;;;;28.85;18.25;;;7.40;99.90;;;;;;4896137;29;20032;-80
2021/11/16 18:40:13;;;;;;;26.98;17.15;;;7.40;99.90;;;;;;4895325;29;20032;-80
2021/11/16 18:42:55;;;;;;;24.58;16.67;;;7.40;99.90;;;;;;4913792;29;20111;-77
2021/11/16 18:45:22;;;;;;;27.42;15.55;;;7.40;99.90;;;;;;4913041;29;20054;-76
2021/11/16 18:47:49;;;;;;;28.15;18.65;;;7.40;99.90;;;;;;4898138;29;20063;-78
2021/11/16 18:50:18;;;;;;;29.23;17.65;;;7.40;99.90;;;;;;4895907;29;20051;-77
2021/11/16 18:52:44;;;;;;;35.75;20.83;;;7.40;99.90;;;;;;4898132;29;20028;-78
2021/11/16 18:55:13;;;;;;;28.52;18.63;;;7.40;99.90;;;;;;4897885;29;20040;-80
2021/11/16 18:57:38;;;;;;;26.77;17.33;;;7.40;99.90;;;;;;4897304;29;20115;-79
2021/11/16 19:00:06;;;;;;;28.67;18.10;;;7.40;99.90;;;;;;4895506;29;20127;-79
2021/11/16 19:02:32;;;;;;;28.95;18.05;;;7.50;99.90;;;;;;4913285;29;20079;-79
2021/11/16 19:04:57;;;;;;;27.10;18.15;;;7.50;99.90;;;;;;4897619;29;20036;-78
2021/11/16 19:07:23;;;;;;;25.63;17.15;;;7.50;99.90;;;;;;4898204;29;20076;-78
2021/11/16 19:09:49;;;;;;;25.50;17.90;;;7.60;99.90;;;;;;4911962;29;20047;-79
2021/11/16 19:12:15;;;;;;;26.67;17.42;;;7.60;99.90;;;;;;4897207;29;20031;-79
2021/11/16 19:14:43;;;;;;;28.52;17.83;;;7.60;99.90;;;;;;4914354;29;20043;-79
2021/11/16 19:17:10;;;;;;;28.48;18.85;;;7.60;99.90;;;;;;4905219;29;20043;-79
2021/11/16 19:19:42;;;;;;;26.35;18.25;;;7.60;99.90;;;;;;4901849;29;20083;-79
2021/11/16 19:22:08;;;;;;;;;;;7.60;99.90;;;;;;4899502;29;20503;-79
2021/11/16 19:24:47;;;;;;;25.85;16.98;;;7.60;99.90;;;;;;4908038;29;20355;-79
2021/11/16 19:27:16;;;;;;;21.95;14.95;;;7.60;99.90;;;;;;4888503;29;20723;-79
2021/11/16 19:29:46;;;;;;;27.33;16.50;;;7.60;99.90;;;;;;4895678;29;20445;-79
2021/11/16 19:32:12;;;;;;;24.75;16.98;;;7.60;99.90;;;;;;4894424;29;20048;-79
2021/11/16 19:34:37;;;;;;;24.45;16.05;;;7.60;99.90;;;;;;4896947;29;20092;-80
2021/11/16 19:39:34;;;;;;;24.23;17.83;;;7.60;99.90;;;;;;4901763;29;20449;-78
2021/11/16 19:42:00;;;;;;;27.23;18.17;;;7.70;99.90;;;;;;4913815;29;20056;-80
2021/11/16 19:44:26;;;;;;;25.58;17.38;;;7.70;99.90;;;;;;4897315;29;20028;-77
2021/11/16 19:46:51;;;;;;;28.38;19.13;;;7.70;99.90;;;;;;4895409;29;20503;-80
2021/11/16 19:49:17;;;;;;;26.90;17.13;;;7.70;99.90;;;;;;4894978;29;20043;-80
2021/11/16 19:51:44;;;;;;;25.85;16.85;;;7.60;99.90;;;;;;4896371;29;20064;-78
2021/11/16 19:54:10;;;;;;;23.15;15.00;;;7.70;99.90;;;;;;4895981;29;20040;-79
2021/11/16 19:56:36;;;;;;;22.08;15.63;;;7.70;99.90;;;;;;4914507;29;20404;-79
2021/11/16 19:59:02;;;;;;;22.52;15.30;;;7.70;99.90;;;;;;4896133;29;20028;-79
2021/11/16 20:01:28;;;;;;;23.50;16.35;;;7.70;99.90;;;;;;4893697;29;20036;-82
2021/11/16 20:03:54;;;;;;;23.38;15.27;;;7.70;99.90;;;;;;4894597;29;20032;-82
2021/11/16 20:06:21;;;;;;;25.75;15.95;;;7.70;99.90;;;;;;4912688;29;20038;-82
2021/11/16 20:08:47;;;;;;;26.05;17.40;;;7.70;99.90;;;;;;4896550;29;20046;-82
2021/11/16 20:11:14;;;;;;;22.80;15.40;;;7.70;99.90;;;;;;4897410;29;20044;-81
2021/11/16 20:13:41;;;;;;;22.45;15.32;;;7.60;99.90;;;;;;4896064;29;20103;-82
2021/11/16 20:16:07;;;;;;;25.55;15.77;;;7.60;99.90;;;;;;4896376;29;20040;-79
2021/11/16 20:18:33;;;;;;;22.65;14.63;;;7.70;99.90;;;;;;4913563;29;20024;-80
2021/11/16 20:21:01;;;;;;;22.70;14.32;;;7.70;99.90;;;;;;4896050;29;20393;-80
2021/11/16 20:23:29;;;;;;;24.10;15.98;;;7.70;99.90;;;;;;4896485;29;20025;-79
2021/11/16 20:25:57;;;;;;;22.33;14.35;;;7.70;99.90;;;;;;4896494;29;20508;-80
2021/11/16 20:28:29;;;;;;;23.15;15.63;;;7.70;99.90;;;;;;4912811;29;20119;-80
2021/11/16 20:31:00;;;;;;;23.10;14.68;;;7.70;99.90;;;;;;4881240;29;20037;-79
2021/11/16 20:33:32;;;;;;;19.73;13.33;;;7.70;99.90;;;;;;4900074;29;20044;-78
2021/11/16 20:36:06;;;;;;;21.38;14.13;;;7.70;99.90;;;;;;4896544;29;20572;-82
2021/11/16 20:38:42;;;;;;;19.67;13.90;;;7.70;99.90;;;;;;4887730;29;20030;-78
2021/11/16 20:41:16;;;;;;;21.38;14.45;;;7.70;99.90;;;;;;4894569;29;20043;-79
2021/11/16 20:43:49;;;;;;;24.42;15.30;;;7.70;99.90;;;;;;4914131;29;20028;-80
2021/11/16 20:46:39;;;;;;;24.90;15.65;;;7.70;99.90;;;;;;4885952;29;20532;-80
2021/11/16 21:00:15;;;;;;;94.07;50.50;;;7.70;99.90;;;;;;4915903;29;20043;-82
2021/11/16 21:02:41;;;;;;;76.20;40.30;;;7.70;99.90;;;;;;4914235;29;20044;-81
2021/11/16 21:05:11;;;;;;;82.07;44.92;;;7.70;99.90;;;;;;4914955;29;20389;-82